sensor_id;sensor_type;location;lat;lon;timestamp;P1;durP1;ratioP1;P2;durP2;ratioP2
63005;SDS011;53704;52.532;6.426;2022-12-20T00:01:15;5.43;;;4.25;;
63005;SDS011;53704;52.532;6.426;2022-12-20T00:03:43;4.35;;;4.05;;
63005;SDS011;53704;52.532;6.426;2022-12-20T00:06:10;5.40;;;4.22;;
63005;SDS011;53704;52.532;6.426;2022-12-20T00:08:36;7.88;;;4.35;;
63005;SDS011;53704;52.532;6.426;2022-12-20T00:11:03;6.47;;;4.50;;
63005;SDS011;53704;52.532;6.426;2022-12-20T00:13:30;5.38;;;4.15;;
63005;SDS011;53704;52.532;6.426;2022-12-20T00:16:03;3.80;;;3.50;;
63005;SDS011;53704;52.532;6.426;2022-12-20T00:18:30;4.53;;;3.97;;
63005;SDS011;53704;52.532;6.426;2022-12-20T00:20:59;8.55;;;4.80;;
63005;SDS011;53704;52.532;6.426;2022-12-20T00:23:26;4.00;;;3.63;;
63005;SDS011;53704;52.532;6.426;2022-12-20T00:25:58;4.28;;;3.88;;
63005;SDS011;53704;52.532;6.426;2022-12-20T00:28:31;8.90;;;4.57;;
63005;SDS011;53704;52.532;6.426;2022-12-20T00:30:58;4.05;;;3.50;;
63005;SDS011;53704;52.532;6.426;2022-12-20T00:33:24;4.88;;;3.95;;
63005;SDS011;53704;52.532;6.426;2022-12-20T00:35:49;6.50;;;3.80;;
63005;SDS011;53704;52.532;6.426;2022-12-20T00:38:15;4.30;;;3.92;;
63005;SDS011;53704;52.532;6.426;2022-12-20T00:40:40;4.95;;;3.50;;
63005;SDS011;53704;52.532;6.426;2022-12-20T00:43:06;4.35;;;3.90;;
63005;SDS011;53704;52.532;6.426;2022-12-20T00:45:31;4.03;;;3.60;;
63005;SDS011;53704;52.532;6.426;2022-12-20T00:47:57;4.68;;;3.85;;
63005;SDS011;53704;52.532;6.426;2022-12-20T00:50:23;4.88;;;4.10;;
63005;SDS011;53704;52.532;6.426;2022-12-20T00:52:48;4.05;;;3.45;;
63005;SDS011;53704;52.532;6.426;2022-12-20T00:55:13;4.18;;;3.65;;
63005;SDS011;53704;52.532;6.426;2022-12-20T00:57:39;6.78;;;3.75;;
63005;SDS011;53704;52.532;6.426;2022-12-20T01:00:05;5.22;;;3.75;;
63005;SDS011;53704;52.532;6.426;2022-12-20T01:02:31;4.55;;;3.70;;
63005;SDS011;53704;52.532;6.426;2022-12-20T01:04:56;6.50;;;3.35;;
63005;SDS011;53704;52.532;6.426;2022-12-20T01:07:22;3.85;;;3.50;;
63005;SDS011;53704;52.532;6.426;2022-12-20T01:09:48;3.95;;;3.60;;
63005;SDS011;53704;52.532;6.426;2022-12-20T01:12:14;4.28;;;3.30;;
63005;SDS011;53704;52.532;6.426;2022-12-20T01:14:39;6.55;;;3.10;;
63005;SDS011;53704;52.532;6.426;2022-12-20T01:17:05;3.50;;;3.20;;
63005;SDS011;53704;52.532;6.426;2022-12-20T01:19:31;3.92;;;3.70;;
63005;SDS011;53704;52.532;6.426;2022-12-20T01:21:56;3.80;;;3.50;;
63005;SDS011;53704;52.532;6.426;2022-12-20T01:24:22;3.45;;;3.20;;
63005;SDS011;53704;52.532;6.426;2022-12-20T01:26:47;4.10;;;3.80;;
63005;SDS011;53704;52.532;6.426;2022-12-20T01:29:13;8.75;;;3.50;;
63005;SDS011;53704;52.532;6.426;2022-12-20T01:31:39;3.13;;;3.00;;
63005;SDS011;53704;52.532;6.426;2022-12-20T01:34:04;3.42;;;3.20;;
63005;SDS011;53704;52.532;6.426;2022-12-20T01:36:32;10.55;;;3.33;;
63005;SDS011;53704;52.532;6.426;2022-12-20T01:39:00;3.95;;;3.25;;
63005;SDS011;53704;52.532;6.426;2022-12-20T01:41:34;8.05;;;3.50;;
63005;SDS011;53704;52.532;6.426;2022-12-20T01:44:02;3.50;;;3.22;;
63005;SDS011;53704;52.532;6.426;2022-12-20T01:46:30;4.70;;;3.38;;
63005;SDS011;53704;52.532;6.426;2022-12-20T01:51:39;3.20;;;3.00;;
63005;SDS011;53704;52.532;6.426;2022-12-20T01:54:13;3.28;;;3.03;;
63005;SDS011;53704;52.532;6.426;2022-12-20T01:56:44;3.35;;;3.05;;
63005;SDS011;53704;52.532;6.426;2022-12-20T01:59:14;8.40;;;3.25;;
63005;SDS011;53704;52.532;6.426;2022-12-20T02:01:41;3.30;;;2.78;;
63005;SDS011;53704;52.532;6.426;2022-12-20T02:04:07;2.83;;;2.63;;
63005;SDS011;53704;52.532;6.426;2022-12-20T02:06:33;2.80;;;2.60;;
63005;SDS011;53704;52.532;6.426;2022-12-20T02:08:59;4.68;;;2.60;;
63005;SDS011;53704;52.532;6.426;2022-12-20T02:16:48;6.47;;;2.72;;
63005;SDS011;53704;52.532;6.426;2022-12-20T02:19:46;8.25;;;2.92;;
63005;SDS011;53704;52.532;6.426;2022-12-20T02:28:14;2.63;;;2.42;;
63005;SDS011;53704;52.532;6.426;2022-12-20T02:31:26;6.28;;;2.65;;
63005;SDS011;53704;52.532;6.426;2022-12-20T02:33:58;3.17;;;2.58;;
63005;SDS011;53704;52.532;6.426;2022-12-20T02:36:27;2.95;;;2.70;;
63005;SDS011;53704;52.532;6.426;2022-12-20T02:38:52;7.32;;;2.80;;
63005;SDS011;53704;52.532;6.426;2022-12-20T02:44:18;3.35;;;2.88;;
63005;SDS011;53704;52.532;6.426;2022-12-20T02:47:07;7.68;;;3.67;;
63005;SDS011;53704;52.532;6.426;2022-12-20T02:49:37;2.85;;;2.65;;
63005;SDS011;53704;52.532;6.426;2022-12-20T02:52:08;3.90;;;3.30;;
63005;SDS011;53704;52.532;6.426;2022-12-20T02:54:36;5.63;;;3.10;;
63005;SDS011;53704;52.532;6.426;2022-12-20T02:59:44;8.07;;;3.25;;
63005;SDS011;53704;52.532;6.426;2022-12-20T03:02:19;6.30;;;3.67;;
63005;SDS011;53704;52.532;6.426;2022-12-20T03:04:45;7.30;;;3.55;;
63005;SDS011;53704;52.532;6.426;2022-12-20T03:07:13;3.67;;;3.30;;
63005;SDS011;53704;52.532;6.426;2022-12-20T03:09:41;6.18;;;3.17;;
63005;SDS011;53704;52.532;6.426;2022-12-20T03:12:09;8.73;;;3.45;;
63005;SDS011;53704;52.532;6.426;2022-12-20T03:14:36;4.35;;;3.95;;
63005;SDS011;53704;52.532;6.426;2022-12-20T03:17:02;7.93;;;3.55;;
63005;SDS011;53704;52.532;6.426;2022-12-20T03:19:28;9.27;;;3.38;;
63005;SDS011;53704;52.532;6.426;2022-12-20T03:21:53;4.25;;;3.80;;
63005;SDS011;53704;52.532;6.426;2022-12-20T03:24:19;3.28;;;2.97;;
63005;SDS011;53704;52.532;6.426;2022-12-20T03:26:44;3.90;;;3.60;;
63005;SDS011;53704;52.532;6.426;2022-12-20T03:29:10;5.05;;;3.75;;
63005;SDS011;53704;52.532;6.426;2022-12-20T03:31:35;12.43;;;4.93;;
63005;SDS011;53704;52.532;6.426;2022-12-20T03:34:02;4.32;;;3.58;;
63005;SDS011;53704;52.532;6.426;2022-12-20T03:36:28;5.85;;;3.38;;
63005;SDS011;53704;52.532;6.426;2022-12-20T03:38:53;7.75;;;4.25;;
63005;SDS011;53704;52.532;6.426;2022-12-20T03:41:19;4.70;;;3.75;;
63005;SDS011;53704;52.532;6.426;2022-12-20T03:43:49;5.63;;;3.60;;
63005;SDS011;53704;52.532;6.426;2022-12-20T03:46:15;5.53;;;4.30;;
63005;SDS011;53704;52.532;6.426;2022-12-20T03:48:41;7.85;;;4.53;;
63005;SDS011;53704;52.532;6.426;2022-12-20T03:51:07;6.75;;;4.43;;
63005;SDS011;53704;52.532;6.426;2022-12-20T03:53:32;6.63;;;4.18;;
63005;SDS011;53704;52.532;6.426;2022-12-20T03:55:58;4.95;;;3.60;;
63005;SDS011;53704;52.532;6.426;2022-12-20T03:58:23;7.03;;;5.05;;
63005;SDS011;53704;52.532;6.426;2022-12-20T04:00:49;6.75;;;4.00;;
63005;SDS011;53704;52.532;6.426;2022-12-20T04:03:14;4.60;;;4.20;;
63005;SDS011;53704;52.532;6.426;2022-12-20T04:05:40;7.60;;;4.28;;
63005;SDS011;53704;52.532;6.426;2022-12-20T04:08:06;4.30;;;3.75;;
63005;SDS011;53704;52.532;6.426;2022-12-20T04:10:31;5.63;;;3.67;;
63005;SDS011;53704;52.532;6.426;2022-12-20T04:12:57;3.90;;;3.60;;
63005;SDS011;53704;52.532;6.426;2022-12-20T04:15:22;8.60;;;3.80;;
63005;SDS011;53704;52.532;6.426;2022-12-20T04:17:47;7.13;;;3.63;;
63005;SDS011;53704;52.532;6.426;2022-12-20T04:20:13;7.93;;;4.13;;
63005;SDS011;53704;52.532;6.426;2022-12-20T04:22:46;6.05;;;3.80;;
63005;SDS011;53704;52.532;6.426;2022-12-20T04:25:14;4.50;;;3.92;;
63005;SDS011;53704;52.532;6.426;2022-12-20T04:27:41;4.45;;;3.70;;
63005;SDS011;53704;52.532;6.426;2022-12-20T04:30:07;4.32;;;3.45;;
63005;SDS011;53704;52.532;6.426;2022-12-20T04:32:33;6.43;;;4.00;;
63005;SDS011;53704;52.532;6.426;2022-12-20T04:34:59;7.72;;;3.80;;
63005;SDS011;53704;52.532;6.426;2022-12-20T04:37:24;4.00;;;3.70;;
63005;SDS011;53704;52.532;6.426;2022-12-20T04:39:50;8.23;;;3.97;;
63005;SDS011;53704;52.532;6.426;2022-12-20T04:42:15;5.60;;;3.55;;
63005;SDS011;53704;52.532;6.426;2022-12-20T04:44:40;4.43;;;3.83;;
63005;SDS011;53704;52.532;6.426;2022-12-20T04:47:06;8.40;;;3.85;;
63005;SDS011;53704;52.532;6.426;2022-12-20T04:49:31;9.13;;;3.50;;
63005;SDS011;53704;52.532;6.426;2022-12-20T04:51:57;7.18;;;3.53;;
63005;SDS011;53704;52.532;6.426;2022-12-20T04:57:07;10.23;;;3.20;;
63005;SDS011;53704;52.532;6.426;2022-12-20T04:59:34;8.05;;;3.85;;
63005;SDS011;53704;52.532;6.426;2022-12-20T05:01:59;5.53;;;4.28;;
63005;SDS011;53704;52.532;6.426;2022-12-20T05:04:25;3.97;;;3.72;;
63005;SDS011;53704;52.532;6.426;2022-12-20T05:06:50;6.68;;;3.45;;
63005;SDS011;53704;52.532;6.426;2022-12-20T05:09:16;3.38;;;3.17;;
63005;SDS011;53704;52.532;6.426;2022-12-20T05:11:41;9.48;;;3.50;;
63005;SDS011;53704;52.532;6.426;2022-12-20T05:14:06;4.63;;;3.45;;
63005;SDS011;53704;52.532;6.426;2022-12-20T05:16:32;3.65;;;3.22;;
63005;SDS011;53704;52.532;6.426;2022-12-20T05:18:57;10.32;;;4.03;;
63005;SDS011;53704;52.532;6.426;2022-12-20T05:21:23;5.28;;;3.78;;
63005;SDS011;53704;52.532;6.426;2022-12-20T05:24:07;4.13;;;3.13;;
63005;SDS011;53704;52.532;6.426;2022-12-20T05:26:52;3.38;;;3.08;;
63005;SDS011;53704;52.532;6.426;2022-12-20T05:29:17;5.43;;;3.20;;
63005;SDS011;53704;52.532;6.426;2022-12-20T05:31:43;3.30;;;3.10;;
63005;SDS011;53704;52.532;6.426;2022-12-20T05:34:08;3.58;;;3.28;;
63005;SDS011;53704;52.532;6.426;2022-12-20T05:36:34;7.13;;;4.05;;
63005;SDS011;53704;52.532;6.426;2022-12-20T05:38:59;7.68;;;5.50;;
63005;SDS011;53704;52.532;6.426;2022-12-20T05:41:25;8.60;;;5.55;;
63005;SDS011;53704;52.532;6.426;2022-12-20T05:43:50;8.52;;;4.47;;
63005;SDS011;53704;52.532;6.426;2022-12-20T05:46:16;3.80;;;3.60;;
63005;SDS011;53704;52.532;6.426;2022-12-20T05:48:41;6.60;;;4.15;;
63005;SDS011;53704;52.532;6.426;2022-12-20T05:51:07;4.05;;;3.85;;
63005;SDS011;53704;52.532;6.426;2022-12-20T05:53:32;4.75;;;3.88;;
63005;SDS011;53704;52.532;6.426;2022-12-20T05:55:58;7.00;;;3.78;;
63005;SDS011;53704;52.532;6.426;2022-12-20T05:58:23;4.93;;;3.60;;
63005;SDS011;53704;52.532;6.426;2022-12-20T06:00:49;5.07;;;3.25;;
63005;SDS011;53704;52.532;6.426;2022-12-20T06:03:14;6.20;;;3.50;;
63005;SDS011;53704;52.532;6.426;2022-12-20T06:05:40;5.65;;;3.25;;
63005;SDS011;53704;52.532;6.426;2022-12-20T06:08:08;5.20;;;3.20;;
63005;SDS011;53704;52.532;6.426;2022-12-20T06:10:34;5.25;;;3.40;;
63005;SDS011;53704;52.532;6.426;2022-12-20T06:13:00;3.33;;;3.03;;
63005;SDS011;53704;52.532;6.426;2022-12-20T06:15:26;3.53;;;3.20;;
63005;SDS011;53704;52.532;6.426;2022-12-20T06:17:52;6.05;;;3.53;;
63005;SDS011;53704;52.532;6.426;2022-12-20T06:20:18;9.80;;;3.78;;
63005;SDS011;53704;52.532;6.426;2022-12-20T06:22:43;3.88;;;3.53;;
63005;SDS011;53704;52.532;6.426;2022-12-20T06:25:09;4.07;;;3.50;;
63005;SDS011;53704;52.532;6.426;2022-12-20T06:27:35;7.22;;;3.65;;
63005;SDS011;53704;52.532;6.426;2022-12-20T06:30:01;4.22;;;3.33;;
63005;SDS011;53704;52.532;6.426;2022-12-20T06:32:29;4.18;;;3.78;;
63005;SDS011;53704;52.532;6.426;2022-12-20T06:34:55;9.07;;;3.65;;
63005;SDS011;53704;52.532;6.426;2022-12-20T06:37:21;15.63;;;4.03;;
63005;SDS011;53704;52.532;6.426;2022-12-20T06:39:46;7.22;;;4.28;;
63005;SDS011;53704;52.532;6.426;2022-12-20T06:42:12;6.30;;;3.60;;
63005;SDS011;53704;52.532;6.426;2022-12-20T06:44:37;4.05;;;3.63;;
63005;SDS011;53704;52.532;6.426;2022-12-20T06:47:02;4.00;;;3.70;;
63005;SDS011;53704;52.532;6.426;2022-12-20T06:49:28;4.25;;;3.95;;
63005;SDS011;53704;52.532;6.426;2022-12-20T06:51:54;4.03;;;3.58;;
63005;SDS011;53704;52.532;6.426;2022-12-20T06:54:20;7.55;;;4.22;;
63005;SDS011;53704;52.532;6.426;2022-12-20T06:56:45;8.02;;;3.92;;
63005;SDS011;53704;52.532;6.426;2022-12-20T06:59:10;8.02;;;4.63;;
63005;SDS011;53704;52.532;6.426;2022-12-20T07:01:36;4.70;;;3.97;;
63005;SDS011;53704;52.532;6.426;2022-12-20T07:04:01;6.75;;;4.28;;
63005;SDS011;53704;52.532;6.426;2022-12-20T07:06:27;4.95;;;3.88;;
63005;SDS011;53704;52.532;6.426;2022-12-20T07:08:53;6.10;;;3.85;;
63005;SDS011;53704;52.532;6.426;2022-12-20T07:11:19;5.85;;;3.95;;
63005;SDS011;53704;52.532;6.426;2022-12-20T07:13:44;4.20;;;3.85;;
63005;SDS011;53704;52.532;6.426;2022-12-20T07:16:10;4.43;;;4.05;;
63005;SDS011;53704;52.532;6.426;2022-12-20T07:18:35;5.47;;;3.65;;
63005;SDS011;53704;52.532;6.426;2022-12-20T07:21:02;5.82;;;3.97;;
63005;SDS011;53704;52.532;6.426;2022-12-20T07:23:28;7.18;;;3.80;;
63005;SDS011;53704;52.532;6.426;2022-12-20T07:25:54;7.05;;;3.70;;
63005;SDS011;53704;52.532;6.426;2022-12-20T07:28:21;10.55;;;4.20;;
63005;SDS011;53704;52.532;6.426;2022-12-20T07:30:48;3.97;;;3.67;;
63005;SDS011;53704;52.532;6.426;2022-12-20T07:33:13;5.80;;;4.22;;
63005;SDS011;53704;52.532;6.426;2022-12-20T07:35:39;6.82;;;3.83;;
63005;SDS011;53704;52.532;6.426;2022-12-20T07:38:04;7.57;;;3.70;;
63005;SDS011;53704;52.532;6.426;2022-12-20T07:40:30;6.00;;;3.85;;
63005;SDS011;53704;52.532;6.426;2022-12-20T07:42:55;5.53;;;3.58;;
63005;SDS011;53704;52.532;6.426;2022-12-20T07:45:21;8.27;;;3.92;;
63005;SDS011;53704;52.532;6.426;2022-12-20T07:47:47;7.55;;;4.18;;
63005;SDS011;53704;52.532;6.426;2022-12-20T07:50:12;7.82;;;3.95;;
63005;SDS011;53704;52.532;6.426;2022-12-20T07:52:38;10.60;;;4.20;;
63005;SDS011;53704;52.532;6.426;2022-12-20T07:55:06;7.93;;;3.75;;
63005;SDS011;53704;52.532;6.426;2022-12-20T07:57:55;9.82;;;3.78;;
63005;SDS011;53704;52.532;6.426;2022-12-20T08:00:25;7.78;;;3.00;;
63005;SDS011;53704;52.532;6.426;2022-12-20T08:02:56;5.95;;;3.60;;
63005;SDS011;53704;52.532;6.426;2022-12-20T08:05:27;4.45;;;3.45;;
63005;SDS011;53704;52.532;6.426;2022-12-20T08:07:53;3.63;;;3.13;;
63005;SDS011;53704;52.532;6.426;2022-12-20T08:10:21;4.05;;;2.95;;
63005;SDS011;53704;52.532;6.426;2022-12-20T08:12:47;6.22;;;3.97;;
63005;SDS011;53704;52.532;6.426;2022-12-20T08:15:13;3.25;;;2.95;;
63005;SDS011;53704;52.532;6.426;2022-12-20T08:17:39;5.50;;;3.20;;
63005;SDS011;53704;52.532;6.426;2022-12-20T08:20:04;6.80;;;3.35;;
63005;SDS011;53704;52.532;6.426;2022-12-20T08:22:32;15.52;;;2.90;;
63005;SDS011;53704;52.532;6.426;2022-12-20T08:24:59;4.82;;;2.53;;
63005;SDS011;53704;52.532;6.426;2022-12-20T08:27:25;5.07;;;2.70;;
63005;SDS011;53704;52.532;6.426;2022-12-20T08:29:50;3.50;;;3.25;;
63005;SDS011;53704;52.532;6.426;2022-12-20T08:32:16;3.13;;;2.63;;
63005;SDS011;53704;52.532;6.426;2022-12-20T08:34:41;6.53;;;3.53;;
63005;SDS011;53704;52.532;6.426;2022-12-20T08:37:07;8.23;;;2.95;;
63005;SDS011;53704;52.532;6.426;2022-12-20T08:39:32;4.63;;;3.00;;
63005;SDS011;53704;52.532;6.426;2022-12-20T08:41:58;9.25;;;3.25;;
63005;SDS011;53704;52.532;6.426;2022-12-20T08:44:23;3.90;;;2.80;;
63005;SDS011;53704;52.532;6.426;2022-12-20T08:46:49;4.47;;;2.95;;
63005;SDS011;53704;52.532;6.426;2022-12-20T08:49:15;6.43;;;3.42;;
63005;SDS011;53704;52.532;6.426;2022-12-20T08:51:40;3.40;;;3.13;;
63005;SDS011;53704;52.532;6.426;2022-12-20T08:54:06;2.95;;;2.75;;
63005;SDS011;53704;52.532;6.426;2022-12-20T08:56:32;6.90;;;3.10;;
63005;SDS011;53704;52.532;6.426;2022-12-20T08:58:58;3.38;;;3.10;;
63005;SDS011;53704;52.532;6.426;2022-12-20T09:01:23;5.47;;;3.17;;
63005;SDS011;53704;52.532;6.426;2022-12-20T09:03:51;5.55;;;3.10;;
63005;SDS011;53704;52.532;6.426;2022-12-20T09:06:20;5.35;;;3.50;;
63005;SDS011;53704;52.532;6.426;2022-12-20T09:08:47;5.00;;;2.92;;
63005;SDS011;53704;52.532;6.426;2022-12-20T09:11:14;7.38;;;3.13;;
63005;SDS011;53704;52.532;6.426;2022-12-20T09:13:42;5.45;;;3.33;;
63005;SDS011;53704;52.532;6.426;2022-12-20T09:16:10;3.20;;;2.90;;
63005;SDS011;53704;52.532;6.426;2022-12-20T09:18:36;7.22;;;3.10;;
63005;SDS011;53704;52.532;6.426;2022-12-20T09:21:03;4.97;;;3.05;;
63005;SDS011;53704;52.532;6.426;2022-12-20T09:23:30;3.97;;;3.35;;
63005;SDS011;53704;52.532;6.426;2022-12-20T09:26:10;10.10;;;3.47;;
63005;SDS011;53704;52.532;6.426;2022-12-20T09:28:37;4.55;;;3.13;;
63005;SDS011;53704;52.532;6.426;2022-12-20T09:31:04;4.63;;;3.10;;
63005;SDS011;53704;52.532;6.426;2022-12-20T09:33:31;6.22;;;2.85;;
63005;SDS011;53704;52.532;6.426;2022-12-20T09:35:58;10.52;;;3.45;;
63005;SDS011;53704;52.532;6.426;2022-12-20T09:38:24;4.50;;;3.13;;
63005;SDS011;53704;52.532;6.426;2022-12-20T09:40:51;3.42;;;2.95;;
63005;SDS011;53704;52.532;6.426;2022-12-20T09:43:19;4.55;;;4.15;;
63005;SDS011;53704;52.532;6.426;2022-12-20T09:45:46;6.25;;;3.45;;
63005;SDS011;53704;52.532;6.426;2022-12-20T09:48:20;7.72;;;3.78;;
63005;SDS011;53704;52.532;6.426;2022-12-20T09:50:57;6.53;;;3.25;;
63005;SDS011;53704;52.532;6.426;2022-12-20T09:56:22;13.15;;;3.25;;
63005;SDS011;53704;52.532;6.426;2022-12-20T10:01:20;7.65;;;3.33;;
63005;SDS011;53704;52.532;6.426;2022-12-20T10:03:48;10.60;;;3.30;;
63005;SDS011;53704;52.532;6.426;2022-12-20T10:08:44;8.82;;;3.25;;
63005;SDS011;53704;52.532;6.426;2022-12-20T10:17:08;10.70;;;3.83;;
63005;SDS011;53704;52.532;6.426;2022-12-20T10:19:45;9.68;;;4.43;;
63005;SDS011;53704;52.532;6.426;2022-12-20T10:24:52;16.45;;;4.40;;
63005;SDS011;53704;52.532;6.426;2022-12-20T10:27:23;11.75;;;3.90;;
63005;SDS011;53704;52.532;6.426;2022-12-20T10:29:49;6.18;;;3.50;;
63005;SDS011;53704;52.532;6.426;2022-12-20T10:32:17;7.07;;;3.63;;
63005;SDS011;53704;52.532;6.426;2022-12-20T10:37:34;5.90;;;3.60;;
63005;SDS011;53704;52.532;6.426;2022-12-20T10:40:02;4.88;;;3.70;;
63005;SDS011;53704;52.532;6.426;2022-12-20T10:42:38;4.10;;;3.45;;
63005;SDS011;53704;52.532;6.426;2022-12-20T10:45:26;5.43;;;3.67;;
63005;SDS011;53704;52.532;6.426;2022-12-20T10:47:57;5.15;;;3.58;;
63005;SDS011;53704;52.532;6.426;2022-12-20T10:50:24;3.75;;;3.45;;
63005;SDS011;53704;52.532;6.426;2022-12-20T10:55:37;7.20;;;3.25;;
63005;SDS011;53704;52.532;6.426;2022-12-20T10:58:05;5.78;;;3.47;;
63005;SDS011;53704;52.532;6.426;2022-12-20T11:03:28;6.80;;;3.50;;
63005;SDS011;53704;52.532;6.426;2022-12-20T11:05:59;5.05;;;4.30;;
63005;SDS011;53704;52.532;6.426;2022-12-20T11:08:28;4.82;;;4.05;;
63005;SDS011;53704;52.532;6.426;2022-12-20T11:11:13;8.43;;;4.18;;
63005;SDS011;53704;52.532;6.426;2022-12-20T11:30:29;5.85;;;3.97;;
63005;SDS011;53704;52.532;6.426;2022-12-20T11:36:00;8.93;;;3.60;;
63005;SDS011;53704;52.532;6.426;2022-12-20T11:43:58;11.57;;;4.15;;
63005;SDS011;53704;52.532;6.426;2022-12-20T11:49:50;6.40;;;3.53;;
63005;SDS011;53704;52.532;6.426;2022-12-20T11:57:59;5.32;;;3.65;;
63005;SDS011;53704;52.532;6.426;2022-12-20T12:00:25;5.60;;;4.10;;
63005;SDS011;53704;52.532;6.426;2022-12-20T12:05:48;10.27;;;3.85;;
63005;SDS011;53704;52.532;6.426;2022-12-20T12:08:20;4.57;;;3.83;;
63005;SDS011;53704;52.532;6.426;2022-12-20T12:10:59;5.40;;;4.30;;
63005;SDS011;53704;52.532;6.426;2022-12-20T12:13:30;5.78;;;5.22;;
63005;SDS011;53704;52.532;6.426;2022-12-20T12:16:02;7.00;;;4.03;;
63005;SDS011;53704;52.532;6.426;2022-12-20T12:18:37;8.95;;;5.32;;
63005;SDS011;53704;52.532;6.426;2022-12-20T12:21:21;10.23;;;5.88;;
63005;SDS011;53704;52.532;6.426;2022-12-20T12:26:26;8.25;;;4.32;;
63005;SDS011;53704;52.532;6.426;2022-12-20T12:28:54;5.38;;;4.93;;
63005;SDS011;53704;52.532;6.426;2022-12-20T12:31:31;7.40;;;5.38;;
63005;SDS011;53704;52.532;6.426;2022-12-20T12:34:02;6.75;;;6.13;;
63005;SDS011;53704;52.532;6.426;2022-12-20T12:39:29;4.75;;;4.53;;
63005;SDS011;53704;52.532;6.426;2022-12-20T12:45:15;15.23;;;6.32;;
63005;SDS011;53704;52.532;6.426;2022-12-20T12:48:04;5.43;;;4.53;;
63005;SDS011;53704;52.532;6.426;2022-12-20T12:53:07;5.97;;;4.28;;
63005;SDS011;53704;52.532;6.426;2022-12-20T12:55:45;5.72;;;4.82;;
63005;SDS011;53704;52.532;6.426;2022-12-20T13:00:50;5.80;;;5.30;;
63005;SDS011;53704;52.532;6.426;2022-12-20T13:08:48;5.15;;;4.60;;
63005;SDS011;53704;52.532;6.426;2022-12-20T13:11:39;8.02;;;5.22;;
63005;SDS011;53704;52.532;6.426;2022-12-20T13:16:48;4.70;;;4.20;;
63005;SDS011;53704;52.532;6.426;2022-12-20T13:19:35;5.63;;;5.13;;
63005;SDS011;53704;52.532;6.426;2022-12-20T13:29:52;5.55;;;4.70;;
63005;SDS011;53704;52.532;6.426;2022-12-20T13:40:48;5.57;;;5.15;;
63005;SDS011;53704;52.532;6.426;2022-12-20T13:48:18;10.35;;;5.90;;
63005;SDS011;53704;52.532;6.426;2022-12-20T13:50:57;9.68;;;5.32;;
63005;SDS011;53704;52.532;6.426;2022-12-20T13:53:24;7.85;;;6.55;;
63005;SDS011;53704;52.532;6.426;2022-12-20T13:55:51;13.20;;;6.13;;
63005;SDS011;53704;52.532;6.426;2022-12-20T13:58:19;12.38;;;5.65;;
63005;SDS011;53704;52.532;6.426;2022-12-20T14:01:03;9.45;;;5.60;;
63005;SDS011;53704;52.532;6.426;2022-12-20T14:03:43;9.25;;;5.28;;
63005;SDS011;53704;52.532;6.426;2022-12-20T14:06:12;10.82;;;6.07;;
63005;SDS011;53704;52.532;6.426;2022-12-20T14:08:40;7.70;;;5.85;;
63005;SDS011;53704;52.532;6.426;2022-12-20T14:11:14;6.05;;;5.65;;
63005;SDS011;53704;52.532;6.426;2022-12-20T14:13:41;13.70;;;6.15;;
63005;SDS011;53704;52.532;6.426;2022-12-20T14:16:12;8.95;;;6.43;;
63005;SDS011;53704;52.532;6.426;2022-12-20T14:18:40;7.63;;;5.75;;
63005;SDS011;53704;52.532;6.426;2022-12-20T14:21:06;11.68;;;7.97;;
63005;SDS011;53704;52.532;6.426;2022-12-20T14:23:37;12.40;;;11.15;;
63005;SDS011;53704;52.532;6.426;2022-12-20T14:26:09;6.95;;;6.20;;
63005;SDS011;53704;52.532;6.426;2022-12-20T14:28:42;10.73;;;9.20;;
63005;SDS011;53704;52.532;6.426;2022-12-20T14:31:24;16.13;;;10.57;;
63005;SDS011;53704;52.532;6.426;2022-12-20T14:34:14;19.83;;;13.85;;
63005;SDS011;53704;52.532;6.426;2022-12-20T14:36:47;10.18;;;9.15;;
63005;SDS011;53704;52.532;6.426;2022-12-20T14:39:33;12.52;;;8.25;;
63005;SDS011;53704;52.532;6.426;2022-12-20T14:44:26;9.13;;;7.25;;
63005;SDS011;53704;52.532;6.426;2022-12-20T14:46:54;7.82;;;7.13;;
63005;SDS011;53704;52.532;6.426;2022-12-20T14:52:24;17.13;;;7.53;;
63005;SDS011;53704;52.532;6.426;2022-12-20T14:55:06;17.00;;;7.15;;
63005;SDS011;53704;52.532;6.426;2022-12-20T14:57:48;7.63;;;6.75;;
63005;SDS011;53704;52.532;6.426;2022-12-20T15:13:17;7.82;;;7.10;;
63005;SDS011;53704;52.532;6.426;2022-12-20T15:15:44;7.20;;;6.50;;
63005;SDS011;53704;52.532;6.426;2022-12-20T15:18:13;7.68;;;6.88;;
63005;SDS011;53704;52.532;6.426;2022-12-20T15:20:41;7.72;;;6.97;;
63005;SDS011;53704;52.532;6.426;2022-12-20T15:23:11;8.38;;;6.82;;
63005;SDS011;53704;52.532;6.426;2022-12-20T15:25:39;7.70;;;7.00;;
63005;SDS011;53704;52.532;6.426;2022-12-20T15:28:14;12.35;;;7.13;;
63005;SDS011;53704;52.532;6.426;2022-12-20T15:30:46;7.53;;;6.95;;
63005;SDS011;53704;52.532;6.426;2022-12-20T15:33:14;14.02;;;8.13;;
63005;SDS011;53704;52.532;6.426;2022-12-20T15:35:42;7.72;;;6.93;;
63005;SDS011;53704;52.532;6.426;2022-12-20T15:38:12;8.27;;;7.57;;
63005;SDS011;53704;52.532;6.426;2022-12-20T15:40:41;16.08;;;8.98;;
63005;SDS011;53704;52.532;6.426;2022-12-20T15:43:11;9.43;;;8.63;;
63005;SDS011;53704;52.532;6.426;2022-12-20T15:45:37;9.65;;;8.65;;
63005;SDS011;53704;52.532;6.426;2022-12-20T15:48:03;8.45;;;7.65;;
63005;SDS011;53704;52.532;6.426;2022-12-20T15:50:29;7.55;;;6.95;;
63005;SDS011;53704;52.532;6.426;2022-12-20T15:52:54;12.27;;;9.13;;
63005;SDS011;53704;52.532;6.426;2022-12-20T15:55:19;9.13;;;8.45;;
63005;SDS011;53704;52.532;6.426;2022-12-20T15:57:45;8.40;;;7.65;;
63005;SDS011;53704;52.532;6.426;2022-12-20T16:00:11;12.50;;;7.32;;
63005;SDS011;53704;52.532;6.426;2022-12-20T16:02:37;9.63;;;8.35;;
63005;SDS011;53704;52.532;6.426;2022-12-20T16:05:02;10.13;;;7.78;;
63005;SDS011;53704;52.532;6.426;2022-12-20T16:07:28;8.43;;;7.80;;
63005;SDS011;53704;52.532;6.426;2022-12-20T16:09:54;8.07;;;7.40;;
63005;SDS011;53704;52.532;6.426;2022-12-20T16:12:21;8.25;;;7.50;;
63005;SDS011;53704;52.532;6.426;2022-12-20T16:14:52;8.10;;;7.40;;
63005;SDS011;53704;52.532;6.426;2022-12-20T16:17:18;13.80;;;12.18;;
63005;SDS011;53704;52.532;6.426;2022-12-20T16:19:43;11.48;;;10.60;;
63005;SDS011;53704;52.532;6.426;2022-12-20T16:22:17;12.40;;;9.85;;
63005;SDS011;53704;52.532;6.426;2022-12-20T16:24:44;11.57;;;10.48;;
63005;SDS011;53704;52.532;6.426;2022-12-20T16:27:10;14.18;;;10.95;;
63005;SDS011;53704;52.532;6.426;2022-12-20T16:29:35;12.27;;;11.00;;
63005;SDS011;53704;52.532;6.426;2022-12-20T16:32:01;11.40;;;10.25;;
63005;SDS011;53704;52.532;6.426;2022-12-20T16:34:28;10.25;;;9.40;;
63005;SDS011;53704;52.532;6.426;2022-12-20T16:36:53;16.63;;;14.02;;
63005;SDS011;53704;52.532;6.426;2022-12-20T16:39:18;24.13;;;16.63;;
63005;SDS011;53704;52.532;6.426;2022-12-20T16:41:45;14.57;;;11.70;;
63005;SDS011;53704;52.532;6.426;2022-12-20T16:44:11;23.95;;;18.90;;
63005;SDS011;53704;52.532;6.426;2022-12-20T16:46:38;13.68;;;12.55;;
63005;SDS011;53704;52.532;6.426;2022-12-20T16:49:04;16.25;;;12.90;;
63005;SDS011;53704;52.532;6.426;2022-12-20T16:54:00;16.92;;;12.93;;
63005;SDS011;53704;52.532;6.426;2022-12-20T16:56:28;12.35;;;11.18;;
63005;SDS011;53704;52.532;6.426;2022-12-20T16:58:54;16.08;;;12.15;;
63005;SDS011;53704;52.532;6.426;2022-12-20T17:01:24;19.80;;;12.95;;
63005;SDS011;53704;52.532;6.426;2022-12-20T17:03:54;13.73;;;12.45;;
63005;SDS011;53704;52.532;6.426;2022-12-20T17:06:20;27.45;;;12.65;;
63005;SDS011;53704;52.532;6.426;2022-12-20T17:08:49;12.57;;;11.38;;
63005;SDS011;53704;52.532;6.426;2022-12-20T17:11:19;12.98;;;11.75;;
63005;SDS011;53704;52.532;6.426;2022-12-20T17:13:45;13.00;;;11.73;;
63005;SDS011;53704;52.532;6.426;2022-12-20T17:16:13;15.98;;;13.13;;
63005;SDS011;53704;52.532;6.426;2022-12-20T17:18:40;15.15;;;11.50;;